createdAt,value
2023-05-19T00:00:56.912Z,25.00
2023-05-19T00:01:57.003Z,0.00
2023-05-19T00:02:57.097Z,0.00
2023-05-19T00:03:57.073Z,0.00
2023-05-19T00:04:57.120Z,0.00
2023-05-19T00:05:57.213Z,0.00
2023-05-19T00:06:57.199Z,0.00
2023-05-19T00:07:57.261Z,0.00
2023-05-19T00:08:57.282Z,15.81
2023-05-19T00:09:57.311Z,25.00
2023-05-19T00:10:57.338Z,25.00
2023-05-19T00:11:57.393Z,31.90
2023-05-19T00:12:57.365Z,31.75
2023-05-19T00:13:57.360Z,30.71
2023-05-19T00:14:57.389Z,21.35
2023-05-19T00:15:57.442Z,23.20
2023-05-19T00:16:57.405Z,25.00
2023-05-19T00:17:57.450Z,26.52
2023-05-19T00:18:57.499Z,30.07
2023-05-19T00:19:57.465Z,28.48
2023-05-19T00:20:57.432Z,33.08
2023-05-19T00:21:57.425Z,32.93
2023-05-19T00:22:57.432Z,25.00
2023-05-19T00:23:57.442Z,25.47
2023-05-19T00:24:57.445Z,27.50
2023-05-19T00:25:57.454Z,23.74
2023-05-19T00:26:57.446Z,29.45
2023-05-19T00:27:57.477Z,27.77
2023-05-19T00:28:57.449Z,30.58
2023-05-19T00:29:57.498Z,31.18
2023-05-19T00:30:57.467Z,31.55
2023-05-19T00:31:57.500Z,29.09
2023-05-19T00:32:57.497Z,28.93
2023-05-19T00:33:57.469Z,26.13
2023-05-19T00:34:57.464Z,30.96
2023-05-19T00:35:57.467Z,31.15
2023-05-19T00:36:57.464Z,26.91
2023-05-19T00:37:57.464Z,27.21
2023-05-19T00:38:57.463Z,31.64
2023-05-19T00:39:57.469Z,28.33
2023-05-19T00:40:57.492Z,32.58
2023-05-19T00:41:57.474Z,30.49
2023-05-19T00:42:57.485Z,26.30
2023-05-19T00:43:57.499Z,26.76
2023-05-19T00:44:57.490Z,34.44
2023-05-19T00:45:57.495Z,34.44
2023-05-19T00:46:57.634Z,28.36
2023-05-19T00:47:57.525Z,31.11
2023-05-19T00:48:57.510Z,30.93
2023-05-19T00:49:57.511Z,29.44
2023-05-19T00:50:57.521Z,30.92
2023-05-19T00:51:57.532Z,34.71
2023-05-19T00:52:57.526Z,30.09
2023-05-19T00:53:57.531Z,32.10
2023-05-19T00:54:57.530Z,32.71
2023-05-19T00:55:57.563Z,32.69
2023-05-19T00:56:57.554Z,34.60
2023-05-19T00:57:57.551Z,30.82
2023-05-19T00:58:57.534Z,32.76
2023-05-19T00:59:57.593Z,30.40
2023-05-19T01:00:57.569Z,30.12
2023-05-19T01:01:57.558Z,31.58
2023-05-19T01:02:57.631Z,32.15
2023-05-19T01:03:57.612Z,32.31
2023-05-19T01:04:57.564Z,33.38
2023-05-19T01:05:57.583Z,33.71
2023-05-19T01:06:57.544Z,32.48
2023-05-19T01:07:57.542Z,31.20
2023-05-19T01:08:57.540Z,32.12
2023-05-19T01:09:57.549Z,26.99
2023-05-19T01:10:57.546Z,36.14
2023-05-19T01:11:57.562Z,36.48
2023-05-19T01:12:57.548Z,32.88
2023-05-19T01:13:57.545Z,32.29
2023-05-19T01:14:57.560Z,28.60
2023-05-19T01:15:57.611Z,33.40
2023-05-19T01:16:57.606Z,30.88
2023-05-19T01:17:57.580Z,28.11
2023-05-19T01:18:57.625Z,31.87
2023-05-19T01:19:57.596Z,30.59
2023-05-19T01:20:57.581Z,33.03
2023-05-19T01:21:57.576Z,29.31
2023-05-19T01:22:57.582Z,31.63
2023-05-19T01:23:57.587Z,29.98
2023-05-19T01:24:57.587Z,33.04
2023-05-19T01:25:57.590Z,32.15
2023-05-19T01:26:57.605Z,32.05
2023-05-19T01:27:57.607Z,29.45
2023-05-19T01:28:57.607Z,27.27
2023-05-19T01:29:57.615Z,35.23
2023-05-19T01:30:57.610Z,30.94
2023-05-19T01:31:57.659Z,34.02
2023-05-19T01:32:57.689Z,33.52
2023-05-19T01:33:57.623Z,30.20
2023-05-19T01:34:57.622Z,32.09
2023-05-19T01:35:57.621Z,32.02
2023-05-19T01:36:57.644Z,34.21
2023-05-19T01:37:57.642Z,27.64
2023-05-19T01:38:57.632Z,29.97
2023-05-19T01:39:57.637Z,33.24
2023-05-19T01:40:57.639Z,31.41
2023-05-19T01:41:57.637Z,30.66
2023-05-19T01:42:57.928Z,34.79
2023-05-19T01:43:57.644Z,34.18
2023-05-19T01:44:57.638Z,27.18
2023-05-19T01:45:57.682Z,33.95
2023-05-19T01:46:57.654Z,32.82
2023-05-19T01:47:57.727Z,31.26
2023-05-19T01:48:57.644Z,31.85
2023-05-19T01:49:57.648Z,34.05
2023-05-19T01:50:57.644Z,32.62
2023-05-19T01:51:57.642Z,34.28
2023-05-19T01:52:57.646Z,31.40
2023-05-19T01:53:57.661Z,27.13
2023-05-19T01:54:57.671Z,34.43
2023-05-19T01:55:57.687Z,30.36
2023-05-19T01:56:57.666Z,35.00
2023-05-19T01:57:57.669Z,34.58
2023-05-19T01:58:57.665Z,34.81
2023-05-19T01:59:57.667Z,27.82
2023-05-19T02:00:57.713Z,33.84
2023-05-19T02:01:57.680Z,38.06
2023-05-19T02:02:57.728Z,33.18
2023-05-19T02:03:57.737Z,34.71
2023-05-19T02:04:57.704Z,28.65
2023-05-19T02:05:57.692Z,30.65
2023-05-19T02:06:57.699Z,37.50
2023-05-19T02:07:57.695Z,39.06
2023-05-19T02:08:57.703Z,35.79
2023-05-19T02:09:57.698Z,31.18
2023-05-19T02:10:57.697Z,37.01
2023-05-19T02:11:57.699Z,36.88
2023-05-19T02:12:57.705Z,37.47
2023-05-19T02:13:57.691Z,38.70
2023-05-19T02:14:57.689Z,33.42
2023-05-19T02:15:57.771Z,34.98
2023-05-19T02:16:57.693Z,35.73
2023-05-19T02:17:57.721Z,36.84
2023-05-19T02:18:57.712Z,33.66
2023-05-19T02:19:57.711Z,33.40
2023-05-19T02:20:57.713Z,34.22
2023-05-19T02:21:57.679Z,32.53
2023-05-19T02:22:57.682Z,35.76
2023-05-19T02:23:57.678Z,34.02
2023-05-19T02:24:57.681Z,38.46
2023-05-19T02:25:57.679Z,31.17
2023-05-19T02:26:57.682Z,34.69
2023-05-19T02:27:57.684Z,33.19
2023-05-19T02:28:57.672Z,36.99
2023-05-19T02:29:57.688Z,33.77
2023-05-19T02:30:57.687Z,36.14
2023-05-19T02:31:57.741Z,32.38
2023-05-19T02:32:57.713Z,28.73
2023-05-19T02:33:57.687Z,33.03
2023-05-19T02:34:57.697Z,33.10
2023-05-19T02:35:57.730Z,36.30
2023-05-19T02:36:57.714Z,34.63
2023-05-19T02:37:57.722Z,34.56
2023-05-19T02:38:57.699Z,30.71
2023-05-19T02:39:57.699Z,36.67
2023-05-19T02:40:57.726Z,38.47
2023-05-19T02:41:57.685Z,30.04
2023-05-19T02:42:57.697Z,28.08
2023-05-19T02:43:57.696Z,33.53
2023-05-19T02:44:57.704Z,33.56
2023-05-19T02:45:57.748Z,38.22
2023-05-19T02:46:57.704Z,33.54
2023-05-19T02:47:57.747Z,35.40
2023-05-19T02:48:57.739Z,33.84
2023-05-19T02:49:57.716Z,27.80
2023-05-19T02:50:57.708Z,29.35
2023-05-19T02:51:57.740Z,36.00
2023-05-19T02:52:57.713Z,31.33
2023-05-19T02:53:57.714Z,36.79
2023-05-19T02:54:57.708Z,33.68
2023-05-19T02:55:57.735Z,34.55
2023-05-19T02:56:57.714Z,31.40
2023-05-19T02:57:57.732Z,34.82
2023-05-19T02:58:57.720Z,37.46
2023-05-19T02:59:57.718Z,34.45
2023-05-19T03:00:57.741Z,31.48
2023-05-19T03:01:57.764Z,35.47
2023-05-19T03:02:57.810Z,29.66
2023-05-19T03:03:57.753Z,31.25
2023-05-19T03:04:57.726Z,34.03
2023-05-19T03:05:57.723Z,28.25
2023-05-19T03:06:57.785Z,37.08
2023-05-19T03:07:57.869Z,29.72
2023-05-19T03:08:57.732Z,30.23
2023-05-19T03:09:57.728Z,31.46
2023-05-19T03:10:57.762Z,37.54
2023-05-19T03:11:57.741Z,34.27
2023-05-19T03:12:57.723Z,35.86
2023-05-19T03:13:57.740Z,31.29
2023-05-19T03:14:57.737Z,34.99
2023-05-19T03:15:57.846Z,36.63
2023-05-19T03:16:57.879Z,33.79
2023-05-19T03:17:57.846Z,25.98
2023-05-19T03:18:57.770Z,37.15
2023-05-19T03:19:57.769Z,36.49
2023-05-19T03:20:57.774Z,31.27
2023-05-19T03:21:57.765Z,37.46
2023-05-19T03:22:57.792Z,29.99
2023-05-19T03:23:57.822Z,30.18
2023-05-19T03:24:57.772Z,31.60
2023-05-19T03:25:57.769Z,33.26
2023-05-19T03:26:57.785Z,35.29
2023-05-19T03:27:57.850Z,33.39
2023-05-19T03:28:57.784Z,28.11
2023-05-19T03:29:57.784Z,30.11
2023-05-19T03:30:57.785Z,33.23
2023-05-19T03:31:57.790Z,29.01
2023-05-19T03:32:57.856Z,33.12
2023-05-19T03:33:57.833Z,34.96
2023-05-19T03:34:57.802Z,39.27
2023-05-19T03:35:57.819Z,32.82
2023-05-19T03:36:57.826Z,34.71
2023-05-19T03:37:57.804Z,36.13
2023-05-19T03:38:57.806Z,33.35
2023-05-19T03:39:57.852Z,38.05
2023-05-19T03:40:57.815Z,35.95
2023-05-19T03:41:57.818Z,35.28
2023-05-19T03:42:57.813Z,34.50
2023-05-19T03:43:58.532Z,31.53
2023-05-19T03:44:57.843Z,36.92
2023-05-19T03:45:57.913Z,36.17
2023-05-19T03:46:57.832Z,36.85
2023-05-19T03:47:57.863Z,31.69
2023-05-19T03:48:57.845Z,33.51
2023-05-19T03:49:57.822Z,33.53
2023-05-19T03:50:57.823Z,33.31
2023-05-19T03:51:57.818Z,30.78
2023-05-19T03:52:57.831Z,32.29
2023-05-19T03:53:57.819Z,26.77
2023-05-19T03:54:57.821Z,30.24
2023-05-19T03:55:57.862Z,26.19
2023-05-19T03:56:57.825Z,25.74
2023-05-19T03:57:57.831Z,25.69
2023-05-19T03:58:57.829Z,33.89
2023-05-19T03:59:57.816Z,34.12
2023-05-19T04:00:57.813Z,31.99
2023-05-19T04:01:57.936Z,25.79
2023-05-19T04:02:57.927Z,35.18
2023-05-19T04:03:57.863Z,33.01
2023-05-19T04:04:57.949Z,33.95
2023-05-19T04:05:57.829Z,36.16
2023-05-19T04:06:57.836Z,33.22
2023-05-19T04:07:57.843Z,26.44
2023-05-19T04:08:57.837Z,35.65
2023-05-19T04:09:57.826Z,34.50
2023-05-19T04:10:57.827Z,38.40
2023-05-19T04:11:57.849Z,28.99
2023-05-19T04:12:57.814Z,34.97
2023-05-19T04:13:57.808Z,38.21
2023-05-19T04:14:57.827Z,33.80
2023-05-19T04:15:57.832Z,37.74
2023-05-19T04:16:57.830Z,34.46
2023-05-19T04:17:58.652Z,36.85
2023-05-19T04:18:57.844Z,32.68
2023-05-19T04:19:57.803Z,32.20
2023-05-19T04:20:57.801Z,40.13
2023-05-19T04:21:57.822Z,36.84
2023-05-19T04:22:57.798Z,35.71
2023-05-19T04:23:57.808Z,37.24
2023-05-19T04:24:57.809Z,35.58
2023-05-19T04:25:57.799Z,33.40
2023-05-19T04:26:57.800Z,36.09
2023-05-19T04:27:57.952Z,35.96
2023-05-19T04:28:57.796Z,34.47
2023-05-19T04:29:57.801Z,33.60
2023-05-19T04:30:57.877Z,38.47
2023-05-19T04:31:57.807Z,28.12
2023-05-19T04:32:57.837Z,34.03
2023-05-19T04:33:57.800Z,33.71
2023-05-19T04:34:57.796Z,37.42
2023-05-19T04:35:57.795Z,40.54
2023-05-19T04:36:57.809Z,31.00
2023-05-19T04:37:57.803Z,38.90
2023-05-19T04:38:57.805Z,35.61
2023-05-19T04:39:57.802Z,36.46
2023-05-19T04:40:57.812Z,40.73
2023-05-19T04:41:57.800Z,35.92
2023-05-19T04:42:57.806Z,33.43
2023-05-19T04:43:57.932Z,33.62
2023-05-19T04:44:57.808Z,31.61
2023-05-19T04:45:57.818Z,31.62
2023-05-19T04:46:57.897Z,37.20
2023-05-19T04:47:57.891Z,35.19
2023-05-19T04:48:57.807Z,43.00
2023-05-19T04:49:57.798Z,32.09
2023-05-19T04:50:57.803Z,32.03
2023-05-19T04:51:57.790Z,31.91
2023-05-19T04:52:57.796Z,39.33
2023-05-19T04:53:57.816Z,30.47
2023-05-19T04:54:57.798Z,37.89
2023-05-19T04:55:57.797Z,36.56
2023-05-19T04:56:57.784Z,33.00
2023-05-19T04:57:57.784Z,40.24
2023-05-19T04:58:57.778Z,30.24
2023-05-19T04:59:57.823Z,36.30
2023-05-19T05:00:57.772Z,37.47
2023-05-19T05:01:57.894Z,31.53
2023-05-19T05:02:58.056Z,34.03
2023-05-19T05:03:57.806Z,29.64
2023-05-19T05:04:57.775Z,33.28
2023-05-19T05:05:57.762Z,28.96
2023-05-19T05:06:57.759Z,38.40
2023-05-19T05:07:57.756Z,30.89
2023-05-19T05:08:57.749Z,34.54
2023-05-19T05:09:57.745Z,37.30
2023-05-19T05:10:57.766Z,35.17
2023-05-19T05:11:57.743Z,34.42
2023-05-19T05:12:57.745Z,30.35
2023-05-19T05:13:57.731Z,32.96
2023-05-19T05:14:57.731Z,30.08
2023-05-19T05:15:57.805Z,35.89
2023-05-19T05:16:57.721Z,32.99
2023-05-19T05:17:57.841Z,33.90
2023-05-19T05:18:57.772Z,37.85
2023-05-19T05:19:57.711Z,32.56
2023-05-19T05:20:57.718Z,36.22
2023-05-19T05:21:57.720Z,35.53
2023-05-19T05:22:57.716Z,40.30
2023-05-19T05:23:57.686Z,39.58
2023-05-19T05:24:57.691Z,34.81
2023-05-19T05:25:57.700Z,31.87
2023-05-19T05:26:57.703Z,32.77
2023-05-19T05:27:57.720Z,38.52
2023-05-19T05:28:57.716Z,32.76
2023-05-19T05:29:59.286Z,37.01
2023-05-19T05:30:57.896Z,39.93
2023-05-19T05:31:57.980Z,40.16
2023-05-19T05:32:57.988Z,38.75
2023-05-19T05:33:57.918Z,40.11
2023-05-19T05:34:57.915Z,39.40
2023-05-19T05:35:57.903Z,36.49
2023-05-19T05:36:57.916Z,37.22
2023-05-19T05:37:57.906Z,32.24
2023-05-19T05:38:57.917Z,33.96
2023-05-19T05:39:57.932Z,33.34
2023-05-19T05:40:57.900Z,41.26
2023-05-19T05:41:57.906Z,37.42
2023-05-19T05:42:57.897Z,34.83
2023-05-19T05:43:57.888Z,35.41
2023-05-19T05:44:57.886Z,37.25
2023-05-19T05:45:57.963Z,35.90
2023-05-19T05:46:57.882Z,30.88
2023-05-19T05:47:57.953Z,39.14
2023-05-19T05:48:57.883Z,34.61
2023-05-19T05:49:57.901Z,37.12
2023-05-19T05:50:57.948Z,31.79
2023-05-19T05:52:05.537Z,39.02
2023-05-19T05:52:57.943Z,39.35
2023-05-19T05:53:57.914Z,40.01
2023-05-19T05:54:57.914Z,39.61
2023-05-19T05:55:57.932Z,39.03
2023-05-19T05:56:57.897Z,40.55
2023-05-19T05:57:57.909Z,43.68
2023-05-19T05:58:57.900Z,39.36
2023-05-19T05:59:57.908Z,32.93
2023-05-19T06:00:57.871Z,36.37
2023-05-19T06:01:57.926Z,31.40
2023-05-19T06:02:57.861Z,35.85
2023-05-19T06:03:57.885Z,36.13
2023-05-19T06:04:57.866Z,35.87
2023-05-19T06:05:57.938Z,38.85
2023-05-19T06:06:57.819Z,39.90
2023-05-19T06:07:57.841Z,40.75
2023-05-19T06:08:57.832Z,30.04
2023-05-19T06:09:57.812Z,37.61
2023-05-19T06:10:57.817Z,35.28
2023-05-19T06:11:57.789Z,34.19
2023-05-19T06:12:57.773Z,39.04
2023-05-19T06:13:57.780Z,43.70
2023-05-19T06:14:57.769Z,41.54
2023-05-19T06:15:58.789Z,29.28
2023-05-19T06:16:57.734Z,29.86
2023-05-19T06:17:57.793Z,30.18
2023-05-19T06:18:57.801Z,30.69
2023-05-19T06:19:57.756Z,36.10
2023-05-19T06:20:57.731Z,36.49
2023-05-19T06:21:57.714Z,32.12
2023-05-19T06:22:57.698Z,37.79
2023-05-19T06:23:57.693Z,33.77
2023-05-19T06:24:57.681Z,33.91
2023-05-19T06:25:57.681Z,37.11
2023-05-19T06:26:57.663Z,38.48
2023-05-19T06:27:57.654Z,36.25
2023-05-19T06:28:57.659Z,33.21
2023-05-19T06:29:57.645Z,32.32
2023-05-19T06:30:57.666Z,35.61
2023-05-19T06:31:57.646Z,31.04
2023-05-19T06:32:57.640Z,36.56
2023-05-19T06:33:57.614Z,31.32
2023-05-19T06:34:57.603Z,30.63
2023-05-19T06:35:57.621Z,29.30
2023-05-19T06:36:57.595Z,31.14
2023-05-19T06:37:57.582Z,32.23
2023-05-19T06:38:57.572Z,27.10
2023-05-19T06:39:57.564Z,29.44
2023-05-19T06:40:57.559Z,38.31
2023-05-19T06:41:57.566Z,31.98
2023-05-19T06:42:57.554Z,34.12
2023-05-19T06:43:57.536Z,32.71
2023-05-19T06:44:57.536Z,32.00
2023-05-19T06:45:57.536Z,42.01
2023-05-19T06:46:57.547Z,32.25
2023-05-19T06:47:57.542Z,39.42
2023-05-19T06:48:57.521Z,35.66
2023-05-19T06:49:57.571Z,25.86
2023-05-19T06:50:57.617Z,35.12
2023-05-19T06:51:57.695Z,35.51
2023-05-19T06:52:57.715Z,34.87
2023-05-19T06:53:57.756Z,39.16
2023-05-19T06:54:57.807Z,34.00
2023-05-19T06:55:59.463Z,29.79
2023-05-19T06:56:57.833Z,40.96
2023-05-19T06:57:57.821Z,44.09
2023-05-19T06:58:57.811Z,33.53
2023-05-19T06:59:57.809Z,38.71
2023-05-19T07:00:57.799Z,41.22
2023-05-19T07:01:57.817Z,31.40
2023-05-19T07:02:57.864Z,39.46
2023-05-19T07:03:57.894Z,39.34
2023-05-19T07:04:57.755Z,34.88
2023-05-19T07:05:57.751Z,36.34
2023-05-19T07:06:57.742Z,28.44
2023-05-19T07:07:57.771Z,43.20
2023-05-19T07:08:57.730Z,40.32
2023-05-19T07:09:57.721Z,34.63
2023-05-19T07:10:57.708Z,33.48
2023-05-19T07:11:57.704Z,45.15
2023-05-19T07:12:57.698Z,35.97
2023-05-19T07:13:57.689Z,33.38
2023-05-19T07:14:57.695Z,33.68
2023-05-19T07:15:57.712Z,30.43
2023-05-19T07:16:57.661Z,37.68
2023-05-19T07:17:57.687Z,30.70
2023-05-19T07:18:57.716Z,33.23
2023-05-19T07:19:57.641Z,38.58
2023-05-19T07:20:57.640Z,37.26
2023-05-19T07:21:57.629Z,35.81
2023-05-19T07:22:57.619Z,40.90
2023-05-19T07:23:57.641Z,38.41
2023-05-19T07:24:57.611Z,32.80
2023-05-19T07:25:57.642Z,30.91
2023-05-19T07:26:57.707Z,36.58
2023-05-19T07:27:57.762Z,36.34
2023-05-19T07:28:57.817Z,41.43
2023-05-19T07:29:57.865Z,38.97
2023-05-19T07:30:57.932Z,36.05
2023-05-19T07:31:58.231Z,37.31
2023-05-19T07:32:58.026Z,39.76
2023-05-19T07:33:58.095Z,32.88
2023-05-19T07:34:58.145Z,41.65
2023-05-19T07:35:58.196Z,41.15
2023-05-19T07:36:58.261Z,46.37
2023-05-19T07:37:58.330Z,40.28
2023-05-19T07:38:58.402Z,37.32
2023-05-19T07:39:58.462Z,40.72
2023-05-19T07:40:58.468Z,35.99
2023-05-19T07:41:58.528Z,40.33
2023-05-19T07:42:58.583Z,32.54
2023-05-19T07:43:58.653Z,41.48
2023-05-19T07:44:58.715Z,43.25
2023-05-19T07:45:58.825Z,40.64
2023-05-19T07:46:58.834Z,40.00
2023-05-19T07:47:58.914Z,32.52
2023-05-19T07:48:58.987Z,34.87
2023-05-19T07:49:59.009Z,45.22
2023-05-19T07:50:59.069Z,40.37
2023-05-19T07:51:59.136Z,41.51
2023-05-19T07:52:59.195Z,44.09
2023-05-19T07:53:59.243Z,42.56
2023-05-19T07:54:59.300Z,39.71
2023-05-19T07:55:59.394Z,40.13
2023-05-19T07:56:59.412Z,44.72
2023-05-19T07:57:59.483Z,43.20
2023-05-19T07:58:59.582Z,40.87
2023-05-19T07:59:59.598Z,34.94
2023-05-19T08:00:59.647Z,43.30
2023-05-19T08:01:59.739Z,40.47
2023-05-19T08:02:59.867Z,45.24
2023-05-19T08:03:59.853Z,42.45
2023-05-19T08:04:59.877Z,43.20
2023-05-19T08:05:59.937Z,49.36
2023-05-19T08:07:00.003Z,45.32
2023-05-19T08:08:00.046Z,45.46
2023-05-19T08:09:00.106Z,43.42
2023-05-19T08:10:00.519Z,43.34
2023-05-19T08:11:00.563Z,44.69
2023-05-19T08:12:00.761Z,46.26
2023-05-19T08:13:00.563Z,33.02
2023-05-19T08:14:00.583Z,40.84
2023-05-19T08:15:01.630Z,36.36
2023-05-19T08:16:00.729Z,37.69
2023-05-19T08:17:00.599Z,38.99
2023-05-19T08:18:00.735Z,39.57
2023-05-19T08:19:00.771Z,38.06
2023-05-19T08:20:00.759Z,49.28
2023-05-19T08:21:00.817Z,48.56
2023-05-19T08:22:00.892Z,43.94
2023-05-19T08:23:00.927Z,38.64
2023-05-19T08:24:00.992Z,40.08
2023-05-19T08:25:01.044Z,40.10
2023-05-19T08:26:01.083Z,40.48
2023-05-19T08:27:01.501Z,43.28
2023-05-19T08:28:01.600Z,48.08
2023-05-19T08:29:01.525Z,47.15
2023-05-19T08:30:01.520Z,37.48
2023-05-19T08:31:01.685Z,45.41
2023-05-19T08:32:01.531Z,37.10
2023-05-19T08:33:01.550Z,43.40
2023-05-19T08:34:01.527Z,50.20
2023-05-19T08:35:01.548Z,41.36
2023-05-19T08:36:01.600Z,39.00
2023-05-19T08:37:01.681Z,40.20
2023-05-19T08:38:01.741Z,47.08
2023-05-19T08:39:01.773Z,48.32
2023-05-19T08:40:01.829Z,43.10
2023-05-19T08:41:01.880Z,45.99
2023-05-19T08:42:01.938Z,44.47
2023-05-19T08:43:02.005Z,44.87
2023-05-19T08:44:02.216Z,45.13
2023-05-19T08:45:02.108Z,47.40
2023-05-19T08:46:02.166Z,43.09
2023-05-19T08:47:02.383Z,39.74
2023-05-19T08:48:02.335Z,46.02
2023-05-19T08:49:02.350Z,45.51
2023-05-19T08:50:02.420Z,44.76
2023-05-19T08:51:02.472Z,43.50
2023-05-19T08:52:02.549Z,46.23
2023-05-19T08:53:02.583Z,46.39
2023-05-19T08:54:02.642Z,46.73
2023-05-19T08:55:02.704Z,47.17
2023-05-19T08:56:02.766Z,42.13
2023-05-19T08:57:02.826Z,45.63
2023-05-19T08:58:02.888Z,42.17
2023-05-19T08:59:02.951Z,49.40
2023-05-19T09:00:03.039Z,44.42
2023-05-19T09:01:03.055Z,47.48
2023-05-19T09:02:03.103Z,51.02
2023-05-19T09:04:02.295Z,48.01
2023-05-19T09:05:03.335Z,49.29
2023-05-19T09:06:03.174Z,45.76
2023-05-19T09:07:03.145Z,42.05
2023-05-19T09:08:03.153Z,52.68
2023-05-19T09:09:03.131Z,46.26
2023-05-19T09:10:03.119Z,47.20
2023-05-19T09:11:03.101Z,46.55
2023-05-19T09:12:03.166Z,46.06
2023-05-19T09:13:03.090Z,41.94
2023-05-19T09:14:03.089Z,42.14
2023-05-19T09:15:03.085Z,40.29
2023-05-19T09:16:03.232Z,39.85
2023-05-19T09:17:03.104Z,47.57
2023-05-19T09:18:03.137Z,44.76
2023-05-19T09:19:03.088Z,43.35
2023-05-19T09:20:03.034Z,43.14
2023-05-19T09:21:03.437Z,38.19
2023-05-19T09:22:03.042Z,49.34
2023-05-19T09:23:03.014Z,41.63
2023-05-19T09:24:03.060Z,44.48
2023-05-19T09:25:03.143Z,39.16
2023-05-19T09:26:03.172Z,49.68
2023-05-19T09:27:03.254Z,36.21
2023-05-19T09:28:03.300Z,43.71
2023-05-19T09:29:03.351Z,38.19
2023-05-19T09:30:03.409Z,40.13
2023-05-19T09:31:03.480Z,43.43
2023-05-19T09:32:04.237Z,45.30
2023-05-19T09:33:03.567Z,46.56
2023-05-19T09:34:03.637Z,42.49
2023-05-19T09:35:03.692Z,39.70
2023-05-19T09:36:03.765Z,45.08
2023-05-19T09:37:03.807Z,49.13
2023-05-19T09:38:03.858Z,37.99
2023-05-19T09:39:03.917Z,38.66
2023-05-19T09:40:03.988Z,41.38
2023-05-19T09:41:04.055Z,43.34
2023-05-19T09:42:04.098Z,45.07
2023-05-19T09:43:04.180Z,46.37
2023-05-19T09:44:04.219Z,46.79
2023-05-19T09:45:04.279Z,41.63
2023-05-19T09:46:04.397Z,47.09
2023-05-19T09:47:04.409Z,43.84
2023-05-19T09:48:04.548Z,42.75
2023-05-19T09:49:04.523Z,45.25
2023-05-19T09:50:04.576Z,37.89
2023-05-19T09:51:04.638Z,37.71
2023-05-19T09:52:04.714Z,44.34
2023-05-19T09:53:04.757Z,43.33
2023-05-19T09:54:04.808Z,41.03
2023-05-19T09:55:04.874Z,43.24
2023-05-19T09:56:04.922Z,41.85
2023-05-19T09:57:06.538Z,48.98
2023-05-19T09:58:04.966Z,46.29
2023-05-19T09:59:04.977Z,50.47
2023-05-19T10:00:04.961Z,44.65
2023-05-19T10:01:05.112Z,44.85
2023-05-19T10:02:04.945Z,51.15
2023-05-19T10:03:04.949Z,48.95
2023-05-19T10:04:05.980Z,52.61
2023-05-19T10:05:04.966Z,49.03
2023-05-19T10:06:04.947Z,49.67
2023-05-19T10:07:04.905Z,50.12
2023-05-19T10:08:04.897Z,45.45
2023-05-19T10:09:04.931Z,46.42
2023-05-19T10:10:04.991Z,50.32
2023-05-19T10:11:05.054Z,41.88
2023-05-19T10:12:05.140Z,47.15
2023-05-19T10:13:05.163Z,49.38
2023-05-19T10:14:05.218Z,46.17
2023-05-19T10:15:05.267Z,52.33
2023-05-19T10:16:05.352Z,45.00
2023-05-19T10:17:05.513Z,50.96
2023-05-19T10:18:05.477Z,53.94
2023-05-19T10:19:05.667Z,55.41
2023-05-19T10:20:05.551Z,58.80
2023-05-19T10:21:05.596Z,47.26
2023-05-19T10:22:05.637Z,52.32
2023-05-19T10:23:05.694Z,49.00
2023-05-19T10:24:05.757Z,51.01
2023-05-19T10:25:05.810Z,50.70
2023-05-19T10:26:05.862Z,47.42
2023-05-19T10:27:05.928Z,51.78
2023-05-19T10:28:05.975Z,48.15
2023-05-19T10:29:06.049Z,54.31
2023-05-19T10:30:06.094Z,55.60
2023-05-19T10:31:06.145Z,53.71
2023-05-19T10:32:06.273Z,45.74
2023-05-19T10:33:06.276Z,57.59
2023-05-19T10:34:06.664Z,50.38
2023-05-19T10:35:06.698Z,48.93
2023-05-19T10:36:06.794Z,51.23
2023-05-19T10:37:06.714Z,50.36
2023-05-19T10:38:06.704Z,47.29
2023-05-19T10:39:06.724Z,53.80
2023-05-19T10:40:06.722Z,52.95
2023-05-19T10:41:06.707Z,49.09
2023-05-19T10:42:06.726Z,48.97
2023-05-19T10:43:06.784Z,47.21
2023-05-19T10:44:06.824Z,49.24
2023-05-19T10:45:06.872Z,58.46
2023-05-19T10:46:06.927Z,54.67
2023-05-19T10:47:07.046Z,54.37
2023-05-19T10:48:07.052Z,53.37
2023-05-19T10:49:07.068Z,51.97
2023-05-19T10:50:07.128Z,45.97
2023-05-19T10:51:07.193Z,47.79
2023-05-19T10:52:07.314Z,47.38
2023-05-19T10:53:07.618Z,49.03
2023-05-19T10:54:07.676Z,54.04
2023-05-19T10:55:07.677Z,49.45
2023-05-19T10:56:07.733Z,54.24
2023-05-19T10:57:07.681Z,52.07
2023-05-19T10:58:07.697Z,51.74
2023-05-19T10:59:07.662Z,52.12
2023-05-19T11:00:07.823Z,52.22
2023-05-19T11:01:07.726Z,51.02
2023-05-19T11:02:08.068Z,57.02
2023-05-19T11:03:07.933Z,49.54
2023-05-19T11:04:07.924Z,49.23
2023-05-19T11:05:07.830Z,53.85
2023-05-19T11:06:07.903Z,58.27
2023-05-19T11:07:07.923Z,51.17
2023-05-19T11:08:08.086Z,53.39
2023-05-19T11:09:08.036Z,59.65
2023-05-19T11:10:08.087Z,56.94
2023-05-19T11:11:08.111Z,54.43
2023-05-19T11:12:08.174Z,61.30
2023-05-19T11:13:08.212Z,52.50
2023-05-19T11:14:08.243Z,56.17
2023-05-19T11:15:08.300Z,57.42
2023-05-19T11:16:08.392Z,52.77
2023-05-19T11:17:08.431Z,57.38
2023-05-19T11:18:08.445Z,59.83
2023-05-19T11:19:08.497Z,50.06
2023-05-19T11:20:08.524Z,50.50
2023-05-19T11:21:08.602Z,55.45
2023-05-19T11:22:08.643Z,51.92
2023-05-19T11:23:08.755Z,55.16
2023-05-19T11:24:08.749Z,52.68
2023-05-19T11:25:08.771Z,56.79
2023-05-19T11:26:08.818Z,54.56
2023-05-19T11:27:08.875Z,53.83
2023-05-19T11:28:08.916Z,46.36
2023-05-19T11:29:08.952Z,52.71
2023-05-19T11:30:09.006Z,54.69
2023-05-19T11:31:09.051Z,52.15
2023-05-19T11:32:09.144Z,55.04
2023-05-19T11:33:09.203Z,49.18
2023-05-19T11:34:09.185Z,52.86
2023-05-19T11:35:09.222Z,58.50
2023-05-19T11:36:09.298Z,49.31
2023-05-19T11:37:09.311Z,52.68
2023-05-19T11:38:09.364Z,55.61
2023-05-19T11:39:09.408Z,52.41
2023-05-19T11:40:09.527Z,53.66
2023-05-19T11:41:09.507Z,52.22
2023-05-19T11:42:09.560Z,47.38
2023-05-19T11:43:09.666Z,54.84
2023-05-19T11:44:09.657Z,52.51
2023-05-19T11:45:09.703Z,52.79
2023-05-19T11:46:09.853Z,49.92
2023-05-19T11:47:09.821Z,60.59
2023-05-19T11:48:09.873Z,51.20
2023-05-19T11:49:09.919Z,54.87
2023-05-19T11:50:09.958Z,57.43
2023-05-19T11:51:10.001Z,54.99
2023-05-19T11:52:10.070Z,52.98
2023-05-19T11:53:10.079Z,54.20
2023-05-19T11:54:10.121Z,59.20
2023-05-19T11:55:10.187Z,53.47
2023-05-19T11:56:10.245Z,60.83
2023-05-19T11:57:10.272Z,56.82
2023-05-19T11:58:10.306Z,53.81
2023-05-19T11:59:10.361Z,51.07
2023-05-19T12:00:10.422Z,62.69
2023-05-19T12:01:10.453Z,56.67
2023-05-19T12:02:10.537Z,53.92
2023-05-19T12:03:10.818Z,54.47
2023-05-19T12:04:10.619Z,53.45
2023-05-19T12:05:10.724Z,58.79
2023-05-19T12:06:10.736Z,51.50
2023-05-19T12:07:10.741Z,57.43
2023-05-19T12:08:10.784Z,49.14
2023-05-19T12:09:10.823Z,56.88
2023-05-19T12:10:10.924Z,58.78
2023-05-19T12:11:10.905Z,57.90
2023-05-19T12:12:10.990Z,56.56
2023-05-19T12:13:11.194Z,61.15
2023-05-19T12:14:11.042Z,55.00
2023-05-19T12:15:11.097Z,52.38
2023-05-19T12:16:11.176Z,53.65
2023-05-19T12:17:11.188Z,55.30
2023-05-19T12:18:11.259Z,57.30
2023-05-19T12:19:11.297Z,55.47
2023-05-19T12:20:11.369Z,56.15
2023-05-19T12:21:11.360Z,54.61
2023-05-19T12:22:11.401Z,51.81
2023-05-19T12:23:11.447Z,56.49
2023-05-19T12:24:11.493Z,55.35
2023-05-19T12:25:11.549Z,52.71
2023-05-19T12:26:11.595Z,50.92
2023-05-19T12:27:11.629Z,50.43
2023-05-19T12:28:11.735Z,55.59
2023-05-19T12:29:11.722Z,54.21
2023-05-19T12:30:11.763Z,52.78
2023-05-19T12:31:11.836Z,55.83
2023-05-19T12:32:11.889Z,53.06
2023-05-19T12:33:11.953Z,52.75
2023-05-19T12:34:12.235Z,56.05
2023-05-19T12:35:11.984Z,54.45
2023-05-19T12:36:12.026Z,54.35
2023-05-19T12:37:12.092Z,53.51
2023-05-19T12:38:12.116Z,48.39
2023-05-19T12:39:12.827Z,51.85
2023-05-19T12:40:12.200Z,54.91
2023-05-19T12:41:12.237Z,51.92
2023-05-19T12:42:12.266Z,56.71
2023-05-19T12:43:12.300Z,54.44
2023-05-19T12:44:12.367Z,56.83
2023-05-19T12:45:12.388Z,54.98
2023-05-19T12:46:12.525Z,57.29
2023-05-19T12:47:12.910Z,54.48
2023-05-19T12:48:12.944Z,54.32
2023-05-19T12:49:12.848Z,56.08
2023-05-19T12:50:12.867Z,55.02
2023-05-19T12:51:12.843Z,53.12
2023-05-19T12:52:13.286Z,49.32
2023-05-19T12:53:12.834Z,56.73
2023-05-19T12:54:12.843Z,51.59